Portada
METAR-TAF:

METAR-TAF

Aeroports :

Nakhon Phanom, Tailàndia

latitud: 17-23-02N, longitud: 104-38-35E, altitud: 179 m

Observació

L'informe es va fer fa 33 minuts, a les 08:00 UTC
Vent 13 kt del Est
Temperatura 28°C
Humitat 51%
Pressió 1014 hPa
Visibilitat 10 km o més
Cel ennuvolat a una alçada de 4000 ft
Cel ennuvolat a una alçada de 10000 ft

METAR: VTUW 020800Z 10013KT 9999 BKN040 BKN100 28/17 Q1014 NOSIG

Hora: 15:33 (08:33 UTC)

Pronòstic

L'informe es va fer fa 3 hores i 33 minuts, a les 05:00 UTC
Pronòstic vàlid del 02 a les 06 UTC al 03 a les 06 UTC
Vent 6 kt del Est
Visibilitat 10 km o més
Escasses núvols a una alçada de 4000 ft

TAF: VTUW 020500Z 0206/0306 09006KT 9999 FEW040

Observacions i pronòstics meteorològics de més de 4000 aeroports (METAR i TAF).

Les estacions disponibles són els punts grocs i vermells al mapa.

Posi el ratolí al punt desitjat per veure el nom de l'estació.

Feu clic per veure les observacions i els pronòstics meteorològics.

Per canviar el mapa: feu clic els botons verds amb una creu de color negre per apropar; al botó verd amb un guió per allunyar la imatge; o en les fletxes verdes per a mapes adjacents.


METAR-TAF: